createdAt,value
2023-05-24T00:00:53.077Z,12.22
2023-05-24T00:03:21.612Z,12.23
2023-05-24T00:05:49.328Z,12.15
2023-05-24T00:08:16.918Z,12.15
2023-05-24T00:10:44.615Z,12.13
2023-05-24T00:13:15.186Z,12.08
2023-05-24T00:15:42.706Z,12.07
2023-05-24T00:18:10.328Z,12.09
2023-05-24T00:20:37.947Z,12.04
2023-05-24T00:23:05.625Z,12.03
2023-05-24T00:25:33.124Z,11.92
2023-05-24T00:28:00.623Z,11.98
2023-05-24T00:30:29.582Z,11.96
2023-05-24T00:32:57.228Z,11.83
2023-05-24T00:35:24.760Z,11.83
2023-05-24T00:37:52.256Z,11.73
2023-05-24T00:40:19.806Z,11.60
2023-05-24T00:42:47.305Z,11.49
2023-05-24T00:45:15.123Z,11.50
2023-05-24T00:47:44.112Z,11.44
2023-05-24T00:50:13.089Z,11.34
2023-05-24T00:52:41.924Z,11.33
2023-05-24T00:55:10.600Z,11.37
2023-05-24T00:57:38.097Z,11.40
2023-05-24T01:00:07.990Z,11.38
2023-05-24T01:02:35.617Z,11.33
2023-05-24T01:05:05.803Z,11.24
2023-05-24T01:07:40.372Z,11.20
2023-05-24T01:10:13.078Z,11.14
2023-05-24T01:12:49.488Z,11.08
2023-05-24T01:15:23.426Z,11.16
2023-05-24T01:17:55.817Z,11.15
2023-05-24T01:20:25.169Z,11.11
2023-05-24T01:23:07.219Z,11.05
2023-05-24T01:25:47.440Z,10.98
2023-05-24T01:28:17.611Z,11.07
2023-05-24T01:30:45.660Z,11.04
2023-05-24T01:33:13.337Z,10.97
2023-05-24T01:35:42.469Z,11.05
2023-05-24T01:38:10.913Z,11.06
2023-05-24T01:40:38.996Z,10.96
2023-05-24T01:43:15.707Z,10.92
2023-05-24T01:45:51.854Z,10.91
2023-05-24T01:48:22.129Z,10.90
2023-05-24T01:50:51.389Z,10.84
2023-05-24T01:53:19.821Z,10.83
2023-05-24T01:55:49.473Z,10.77
2023-05-24T01:58:18.174Z,10.77
2023-05-24T02:00:47.386Z,10.78
2023-05-24T02:03:15.710Z,10.67
2023-05-24T02:05:44.293Z,10.66
2023-05-24T02:08:12.759Z,10.60
2023-05-24T02:10:40.693Z,10.64
2023-05-24T02:13:08.670Z,10.62
2023-05-24T02:15:36.536Z,10.61
2023-05-24T02:18:07.982Z,10.59
2023-05-24T02:20:37.458Z,10.55
2023-05-24T02:23:05.318Z,10.48
2023-05-24T02:25:32.967Z,10.45
2023-05-24T02:28:00.582Z,10.40
2023-05-24T02:30:28.301Z,10.37
2023-05-24T02:32:56.130Z,10.33
2023-05-24T02:35:25.016Z,10.34
2023-05-24T02:37:52.548Z,10.32
2023-05-24T02:40:20.067Z,10.30
2023-05-24T02:42:47.614Z,10.33
2023-05-24T02:45:15.105Z,10.28
2023-05-24T02:47:42.716Z,10.29
2023-05-24T02:50:11.449Z,10.24
2023-05-24T02:52:40.378Z,10.20
2023-05-24T02:55:08.670Z,10.27
2023-05-24T02:57:37.864Z,10.25
2023-05-24T03:00:08.215Z,10.24
2023-05-24T03:02:38.520Z,10.20
2023-05-24T03:05:06.992Z,10.23
2023-05-24T03:07:34.507Z,10.24
2023-05-24T03:10:03.337Z,10.20
2023-05-24T03:12:30.854Z,10.18
2023-05-24T03:14:58.407Z,10.17
2023-05-24T03:17:26.447Z,10.15
2023-05-24T03:19:54.045Z,10.09
2023-05-24T03:22:21.571Z,10.09
2023-05-24T03:24:49.086Z,10.04
2023-05-24T03:27:17.971Z,10.00
2023-05-24T03:29:45.487Z,9.97
2023-05-24T03:32:13.004Z,9.89
2023-05-24T03:34:40.529Z,9.94
2023-05-24T03:37:09.834Z,10.00
2023-05-24T03:39:37.355Z,10.03
2023-05-24T03:42:05.279Z,9.91
2023-05-24T03:44:34.085Z,9.85
2023-05-24T03:47:01.604Z,9.83
2023-05-24T03:49:29.107Z,9.88
2023-05-24T03:51:56.649Z,9.85
2023-05-24T03:54:24.156Z,9.79
2023-05-24T03:56:53.197Z,9.82
2023-05-24T03:59:21.762Z,9.80
2023-05-24T04:01:50.633Z,9.78
2023-05-24T04:04:18.258Z,9.80
2023-05-24T04:06:45.895Z,9.69
2023-05-24T04:09:13.411Z,9.66
2023-05-24T04:11:40.942Z,9.58
2023-05-24T04:14:08.804Z,9.58
2023-05-24T04:16:36.425Z,9.52
2023-05-24T04:19:06.741Z,9.58
2023-05-24T04:21:34.323Z,9.58
2023-05-24T04:24:03.382Z,9.54
2023-05-24T04:26:31.291Z,9.55
2023-05-24T04:28:58.929Z,9.61
2023-05-24T04:31:29.357Z,9.62
2023-05-24T04:33:57.317Z,9.51
2023-05-24T04:36:26.355Z,9.41
2023-05-24T04:38:56.120Z,9.33
2023-05-24T04:41:24.322Z,9.34
2023-05-24T04:43:51.886Z,9.34
2023-05-24T04:46:19.528Z,9.30
2023-05-24T04:48:48.202Z,9.34
2023-05-24T04:51:15.720Z,9.39
2023-05-24T04:53:44.572Z,9.37
2023-05-24T04:56:14.873Z,9.40
2023-05-24T04:58:42.532Z,9.46
2023-05-24T05:01:10.040Z,9.40
2023-05-24T05:03:37.766Z,9.40
2023-05-24T05:06:05.668Z,9.40
2023-05-24T05:08:33.392Z,9.42
2023-05-24T05:11:02.789Z,9.44
2023-05-24T05:13:30.333Z,9.46
2023-05-24T05:16:05.608Z,9.41
2023-05-24T05:18:33.859Z,9.58
2023-05-24T05:21:01.376Z,9.63
2023-05-24T05:23:28.843Z,9.59
2023-05-24T05:25:56.361Z,9.64
2023-05-24T05:28:25.227Z,9.71
2023-05-24T05:30:52.724Z,9.79
2023-05-24T05:33:20.355Z,9.84
2023-05-24T05:35:47.891Z,9.91
2023-05-24T05:38:15.504Z,9.95
2023-05-24T05:40:43.264Z,9.99
2023-05-24T05:43:11.169Z,10.11
2023-05-24T05:45:40.296Z,10.18
2023-05-24T05:48:07.973Z,10.13
2023-05-24T05:50:35.624Z,10.01
2023-05-24T05:53:03.597Z,9.99
2023-05-24T05:55:31.128Z,10.09
2023-05-24T05:57:58.887Z,10.16
2023-05-24T06:00:26.839Z,10.23
2023-05-24T06:02:55.906Z,10.29
2023-05-24T06:05:23.531Z,10.33
2023-05-24T06:07:51.056Z,10.41
2023-05-24T06:10:18.678Z,10.47
2023-05-24T06:12:46.214Z,10.52
2023-05-24T06:15:14.140Z,10.64
2023-05-24T06:17:43.769Z,10.71
2023-05-24T06:20:15.836Z,10.67
2023-05-24T06:22:43.761Z,10.73
2023-05-24T06:25:15.428Z,10.74
2023-05-24T06:27:42.958Z,10.78
2023-05-24T06:30:11.269Z,10.58
2023-05-24T06:32:38.946Z,10.55
2023-05-24T06:35:07.852Z,10.66
2023-05-24T06:37:38.508Z,10.80
2023-05-24T06:40:08.867Z,10.67
2023-05-24T06:42:36.640Z,10.76
2023-05-24T06:45:04.712Z,10.85
2023-05-24T06:47:32.378Z,11.00
2023-05-24T06:50:00.888Z,10.99
2023-05-24T06:52:28.417Z,10.98
2023-05-24T06:54:57.285Z,11.05
2023-05-24T06:57:25.228Z,11.14
2023-05-24T06:59:52.859Z,11.13
2023-05-24T07:02:24.104Z,11.14
2023-05-24T07:04:51.807Z,11.16
2023-05-24T07:07:19.853Z,11.22
2023-05-24T07:09:47.760Z,11.30
2023-05-24T07:12:16.663Z,11.17
2023-05-24T07:14:44.190Z,11.15
2023-05-24T07:17:11.797Z,11.19
2023-05-24T07:19:39.383Z,11.29
2023-05-24T07:22:07.302Z,11.22
2023-05-24T07:24:34.806Z,11.25
2023-05-24T07:27:02.365Z,11.37
2023-05-24T07:29:31.373Z,11.53
2023-05-24T07:31:59.058Z,11.45
2023-05-24T07:34:27.986Z,11.39
2023-05-24T07:36:55.728Z,11.43
2023-05-24T07:39:23.335Z,11.59
2023-05-24T07:41:50.935Z,11.61
2023-05-24T07:44:18.446Z,11.51
2023-05-24T07:46:47.377Z,11.54
2023-05-24T07:49:14.960Z,11.61
2023-05-24T07:51:42.650Z,11.69
2023-05-24T07:54:10.411Z,11.80
2023-05-24T07:56:37.986Z,11.90
2023-05-24T07:59:05.549Z,11.89
2023-05-24T08:01:34.444Z,11.99
2023-05-24T08:04:04.174Z,12.23
2023-05-24T08:06:32.753Z,12.50
2023-05-24T08:09:00.365Z,12.60
2023-05-24T08:11:27.893Z,12.67
2023-05-24T08:13:55.437Z,12.70
2023-05-24T08:16:22.980Z,12.60
2023-05-24T08:18:52.545Z,12.31
2023-05-24T08:21:23.464Z,12.27
2023-05-24T08:23:51.020Z,12.17
2023-05-24T08:26:19.270Z,12.08
2023-05-24T08:28:47.214Z,12.01
2023-05-24T08:31:14.861Z,11.95
2023-05-24T08:33:43.040Z,11.86
2023-05-24T08:36:10.818Z,11.84
2023-05-24T08:38:39.654Z,11.87
2023-05-24T08:41:08.461Z,11.79
2023-05-24T08:43:36.148Z,11.90
2023-05-24T08:46:04.912Z,11.84
2023-05-24T08:48:32.709Z,11.78
2023-05-24T08:51:01.032Z,11.62
2023-05-24T08:53:28.555Z,11.60
2023-05-24T08:55:57.539Z,11.71
2023-05-24T08:58:25.449Z,11.72
2023-05-24T09:00:53.126Z,11.87
2023-05-24T09:03:20.890Z,11.90
2023-05-24T09:05:48.766Z,11.91
2023-05-24T09:08:18.323Z,12.02
2023-05-24T09:10:54.935Z,12.15
2023-05-24T09:13:25.586Z,12.25
2023-05-24T09:15:53.874Z,12.27
2023-05-24T09:18:21.870Z,12.43
2023-05-24T09:20:49.559Z,12.65
2023-05-24T09:23:17.562Z,12.68
2023-05-24T09:25:48.211Z,12.64
2023-05-24T09:28:18.012Z,12.67
2023-05-24T09:30:53.263Z,12.55
2023-05-24T09:33:23.825Z,12.63
2023-05-24T09:35:51.410Z,12.75
2023-05-24T09:38:19.667Z,12.84
2023-05-24T09:40:47.275Z,12.91
2023-05-24T09:43:14.798Z,12.89
2023-05-24T09:45:44.330Z,13.00
2023-05-24T09:48:13.972Z,13.05
2023-05-24T09:50:42.072Z,12.90
2023-05-24T09:53:09.771Z,12.77
2023-05-24T09:55:37.802Z,12.89
2023-05-24T09:58:08.190Z,12.83
2023-05-24T10:00:36.725Z,12.99
2023-05-24T10:03:06.723Z,12.96
2023-05-24T10:05:36.988Z,13.11
2023-05-24T10:08:05.618Z,13.24
2023-05-24T10:10:34.053Z,13.42
2023-05-24T10:13:02.432Z,13.35
2023-05-24T10:15:30.781Z,13.32
2023-05-24T10:18:00.029Z,13.34
2023-05-24T10:20:28.440Z,13.61
2023-05-24T10:23:01.467Z,13.58
2023-05-24T10:25:30.075Z,13.71
2023-05-24T10:28:01.772Z,13.83
2023-05-24T10:30:34.224Z,13.89
2023-05-24T10:33:02.696Z,13.77
2023-05-24T10:35:31.094Z,13.84
2023-05-24T10:38:00.160Z,14.00
2023-05-24T10:40:27.778Z,14.12
2023-05-24T10:42:55.347Z,14.19
2023-05-24T10:45:35.563Z,14.07
2023-05-24T10:48:10.285Z,14.39
2023-05-24T10:50:37.868Z,14.43
2023-05-24T10:53:16.847Z,14.37
2023-05-24T10:55:53.537Z,14.39
2023-05-24T10:58:21.138Z,14.59
2023-05-24T11:00:53.306Z,14.69
2023-05-24T11:03:24.542Z,14.71
2023-05-24T11:05:54.626Z,14.90
2023-05-24T11:08:26.518Z,15.07
2023-05-24T11:11:19.115Z,15.03
2023-05-24T11:13:56.883Z,14.83
2023-05-24T11:16:34.896Z,14.80
2023-05-24T11:19:12.983Z,14.87
2023-05-24T11:21:40.889Z,14.90
2023-05-24T11:24:09.843Z,14.85
2023-05-24T11:26:37.410Z,14.83
2023-05-24T11:29:06.182Z,14.91
2023-05-24T11:31:35.654Z,14.91
2023-05-24T11:34:05.460Z,14.83
2023-05-24T11:36:34.066Z,14.79
2023-05-24T11:39:01.653Z,14.94
2023-05-24T11:41:30.749Z,15.23
2023-05-24T11:43:58.992Z,15.21
2023-05-24T11:46:27.934Z,15.26
2023-05-24T11:48:57.780Z,15.43
2023-05-24T11:51:28.329Z,15.50
2023-05-24T11:53:56.902Z,15.61
2023-05-24T11:56:24.831Z,15.50
2023-05-24T11:58:58.099Z,15.26
2023-05-24T12:01:27.234Z,15.45
2023-05-24T12:03:55.191Z,15.53
2023-05-24T12:06:23.064Z,15.73
2023-05-24T12:08:50.736Z,15.94
2023-05-24T12:11:18.401Z,15.87
2023-05-24T12:13:45.958Z,15.87
2023-05-24T12:16:15.370Z,15.91
2023-05-24T12:18:54.941Z,15.87
2023-05-24T12:21:33.657Z,15.63
2023-05-24T12:24:09.512Z,15.81
2023-05-24T12:26:38.044Z,15.91
2023-05-24T12:29:06.853Z,15.87
2023-05-24T12:31:35.975Z,15.88
2023-05-24T12:34:04.973Z,15.90
2023-05-24T12:36:32.457Z,15.56
2023-05-24T12:39:00.383Z,15.51
2023-05-24T12:41:29.794Z,15.69
2023-05-24T12:43:57.300Z,15.79
2023-05-24T12:46:24.918Z,15.89
2023-05-24T12:48:53.812Z,16.15
2023-05-24T12:51:21.316Z,16.24
2023-05-24T12:53:48.805Z,16.24
2023-05-24T12:56:16.353Z,16.10
2023-05-24T12:58:43.875Z,16.07
2023-05-24T13:01:12.350Z,15.98
2023-05-24T13:03:40.397Z,15.99
2023-05-24T13:06:09.687Z,15.82
2023-05-24T13:08:40.049Z,15.68
2023-05-24T13:11:08.355Z,15.66
2023-05-24T13:13:35.977Z,15.65
2023-05-24T13:16:05.510Z,15.69
2023-05-24T13:18:33.055Z,15.66
2023-05-24T13:21:00.988Z,15.76
2023-05-24T13:23:29.926Z,15.78
2023-05-24T13:25:57.466Z,15.71
2023-05-24T13:28:24.968Z,15.65
2023-05-24T13:30:52.573Z,15.69
2023-05-24T13:33:20.340Z,15.80
2023-05-24T13:35:47.861Z,15.79
2023-05-24T13:38:15.447Z,15.99
2023-05-24T13:40:45.761Z,16.06
2023-05-24T13:43:13.532Z,16.22
2023-05-24T13:45:41.018Z,16.14
2023-05-24T13:48:08.660Z,15.70
2023-05-24T13:50:37.658Z,15.67
2023-05-24T13:53:05.768Z,15.62
2023-05-24T13:55:35.413Z,15.72
2023-05-24T13:58:04.949Z,15.59
2023-05-24T14:00:33.176Z,15.72
2023-05-24T14:03:00.994Z,15.81
2023-05-24T14:05:30.394Z,15.81
2023-05-24T14:08:00.275Z,15.75
2023-05-24T14:10:27.901Z,15.74
2023-05-24T14:13:12.897Z,15.61
2023-05-24T14:15:46.657Z,15.39
2023-05-24T14:18:15.385Z,15.28
2023-05-24T14:20:43.336Z,15.26
2023-05-24T14:23:11.143Z,15.20
2023-05-24T14:25:38.704Z,15.23
2023-05-24T14:28:08.281Z,15.42
2023-05-24T14:30:37.548Z,15.72
2023-05-24T14:33:08.088Z,15.89
2023-05-24T14:35:39.427Z,15.85
2023-05-24T14:38:08.599Z,15.84
2023-05-24T14:40:37.123Z,15.85
2023-05-24T14:43:05.409Z,15.78
2023-05-24T14:45:33.091Z,15.79
2023-05-24T14:48:00.951Z,15.83
2023-05-24T14:50:29.916Z,15.81
2023-05-24T14:52:57.660Z,15.87
2023-05-24T14:55:25.188Z,16.07
2023-05-24T14:57:52.734Z,16.09
2023-05-24T15:00:22.769Z,16.11
2023-05-24T15:02:51.672Z,16.20
2023-05-24T15:05:19.235Z,16.29
2023-05-24T15:07:48.099Z,16.29
2023-05-24T15:10:15.636Z,16.25
2023-05-24T15:12:43.171Z,16.21
2023-05-24T15:15:11.424Z,16.25
2023-05-24T15:17:38.971Z,16.25
2023-05-24T15:20:08.070Z,16.29
2023-05-24T15:22:35.780Z,16.43
2023-05-24T15:25:05.084Z,16.24
2023-05-24T15:27:32.584Z,16.04
2023-05-24T15:30:00.186Z,15.97
2023-05-24T15:32:27.760Z,15.93
2023-05-24T15:34:55.313Z,15.99
2023-05-24T15:37:22.816Z,16.00
2023-05-24T15:39:52.376Z,16.05
2023-05-24T15:42:21.699Z,16.09
2023-05-24T15:44:49.277Z,16.20
2023-05-24T15:47:17.325Z,16.39
2023-05-24T15:49:45.434Z,16.50
2023-05-24T15:52:12.924Z,16.23
2023-05-24T15:54:40.713Z,16.15
2023-05-24T15:57:08.218Z,16.16
2023-05-24T15:59:38.516Z,16.19
2023-05-24T16:02:06.844Z,16.31
2023-05-24T16:04:34.484Z,16.25
2023-05-24T16:07:02.062Z,16.35
2023-05-24T16:09:29.682Z,16.63
2023-05-24T16:11:57.180Z,16.70
2023-05-24T16:14:24.748Z,16.73
2023-05-24T16:16:54.943Z,16.68
2023-05-24T16:19:23.618Z,16.39
2023-05-24T16:21:51.448Z,16.40
2023-05-24T16:24:18.953Z,16.32
2023-05-24T16:26:46.487Z,16.37
2023-05-24T16:29:15.065Z,16.32
2023-05-24T16:31:42.637Z,16.22
2023-05-24T16:34:11.567Z,16.20
2023-05-24T16:36:39.104Z,16.27
2023-05-24T16:39:06.633Z,16.21
2023-05-24T16:41:37.516Z,16.16
2023-05-24T16:44:05.356Z,16.21
2023-05-24T16:46:36.526Z,16.22
2023-05-24T16:49:04.410Z,16.35
2023-05-24T16:51:33.261Z,16.35
2023-05-24T16:54:00.866Z,16.35
2023-05-24T16:56:28.494Z,16.33
2023-05-24T16:58:56.142Z,16.26
2023-05-24T17:01:23.846Z,16.23
2023-05-24T17:03:51.730Z,16.23
2023-05-24T17:06:19.272Z,16.30
2023-05-24T17:08:48.348Z,16.13
2023-05-24T17:11:17.008Z,16.09
2023-05-24T17:13:45.681Z,16.00
2023-05-24T17:16:13.996Z,15.99
2023-05-24T17:18:41.655Z,16.01
2023-05-24T17:21:09.434Z,15.94
2023-05-24T17:23:37.582Z,16.02
2023-05-24T17:26:07.952Z,16.03
2023-05-24T17:28:36.597Z,16.08
2023-05-24T17:31:04.386Z,16.00
2023-05-24T17:33:33.001Z,16.06
2023-05-24T17:36:02.694Z,16.15
2023-05-24T17:38:32.875Z,16.15
2023-05-24T17:41:00.504Z,16.23
2023-05-24T17:43:31.825Z,16.32
2023-05-24T17:46:03.822Z,16.25
2023-05-24T17:48:32.249Z,16.25
2023-05-24T17:51:00.817Z,16.29
2023-05-24T17:53:31.952Z,16.43
2023-05-24T17:56:00.553Z,16.41
2023-05-24T17:58:30.831Z,16.32
2023-05-24T18:00:58.592Z,16.14
2023-05-24T18:03:26.222Z,16.05
2023-05-24T18:05:53.740Z,16.00
2023-05-24T18:08:21.312Z,15.99
2023-05-24T18:10:49.038Z,15.88
2023-05-24T18:13:16.713Z,15.89
2023-05-24T18:15:45.843Z,15.87
2023-05-24T18:18:13.642Z,15.77
2023-05-24T18:20:41.327Z,15.80
2023-05-24T18:23:08.921Z,15.76
2023-05-24T18:25:36.674Z,15.76
2023-05-24T18:28:04.241Z,15.80
2023-05-24T18:30:31.759Z,15.73
2023-05-24T18:33:05.543Z,15.61
2023-05-24T18:35:35.699Z,15.55
2023-05-24T18:38:03.348Z,15.47
2023-05-24T18:40:31.157Z,15.45
2023-05-24T18:42:58.691Z,15.36
2023-05-24T18:45:26.281Z,15.34
2023-05-24T18:47:54.199Z,15.32
2023-05-24T18:50:23.626Z,15.24
2023-05-24T18:52:51.392Z,15.28
2023-05-24T18:55:18.981Z,15.13
2023-05-24T18:57:46.541Z,15.05
2023-05-24T19:00:14.741Z,14.94
2023-05-24T19:02:42.408Z,14.83
2023-05-24T19:05:10.199Z,14.80
2023-05-24T19:07:39.165Z,14.78
2023-05-24T19:10:08.161Z,14.76
2023-05-24T19:12:35.708Z,14.67
2023-05-24T19:15:03.285Z,14.65
2023-05-24T19:17:30.936Z,14.52
2023-05-24T19:19:58.582Z,14.54
2023-05-24T19:22:27.672Z,14.43
2023-05-24T19:24:57.103Z,14.33
2023-05-24T19:27:25.343Z,14.27
2023-05-24T19:29:52.857Z,14.23
2023-05-24T19:32:21.336Z,14.11
2023-05-24T19:34:48.974Z,14.04
2023-05-24T19:37:16.539Z,13.96
2023-05-24T19:39:44.275Z,13.89
2023-05-24T19:42:13.271Z,13.84
2023-05-24T19:44:40.858Z,13.78
2023-05-24T19:47:08.392Z,13.71
2023-05-24T19:49:35.928Z,13.72
2023-05-24T19:52:03.425Z,13.62
2023-05-24T19:54:31.117Z,13.57
2023-05-24T19:57:00.767Z,13.58
2023-05-24T19:59:29.681Z,13.53
2023-05-24T20:01:57.495Z,13.54
2023-05-24T20:04:25.263Z,13.50
2023-05-24T20:06:54.109Z,13.44
2023-05-24T20:09:21.659Z,13.42
2023-05-24T20:11:49.197Z,13.34
2023-05-24T20:14:17.978Z,13.33
2023-05-24T20:16:46.973Z,13.26
2023-05-24T20:19:14.501Z,13.23
2023-05-24T20:21:41.999Z,13.25
2023-05-24T20:24:09.704Z,13.20
2023-05-24T20:26:37.629Z,13.17
2023-05-24T20:29:05.186Z,13.16
2023-05-24T20:31:32.928Z,13.14
2023-05-24T20:34:01.959Z,13.14
2023-05-24T20:36:29.495Z,13.19
2023-05-24T20:38:57.181Z,13.16
2023-05-24T20:41:24.796Z,13.14
2023-05-24T20:43:52.317Z,13.12
2023-05-24T20:46:19.988Z,13.10
2023-05-24T20:48:47.558Z,13.08
2023-05-24T20:51:16.831Z,13.02
2023-05-24T20:53:45.575Z,13.07
2023-05-24T20:56:13.253Z,13.01
2023-05-24T20:58:41.450Z,13.02
2023-05-24T21:01:09.225Z,13.00
2023-05-24T21:03:36.828Z,13.00
2023-05-24T21:06:04.437Z,12.82
2023-05-24T21:08:33.283Z,12.87
2023-05-24T21:11:01.029Z,12.92
2023-05-24T21:13:32.537Z,12.80
2023-05-24T21:16:00.039Z,12.88
2023-05-24T21:18:27.585Z,12.87
2023-05-24T21:20:55.275Z,12.87
2023-05-24T21:23:22.819Z,12.83
2023-05-24T21:25:51.711Z,12.79
2023-05-24T21:28:19.224Z,12.80
2023-05-24T21:30:46.847Z,12.71
2023-05-24T21:33:14.371Z,12.61
2023-05-24T21:35:42.148Z,12.55
2023-05-24T21:38:09.768Z,12.54
2023-05-24T21:40:37.257Z,12.51
2023-05-24T21:43:09.697Z,12.50
2023-05-24T21:45:37.222Z,12.48
2023-05-24T21:48:05.035Z,12.40
2023-05-24T21:50:32.688Z,12.35
2023-05-24T21:53:00.265Z,12.41
2023-05-24T21:55:29.077Z,12.38
2023-05-24T21:57:56.698Z,12.23
2023-05-24T22:00:26.847Z,12.11
2023-05-24T22:02:54.555Z,12.17
2023-05-24T22:05:22.137Z,12.33
2023-05-24T22:07:49.665Z,12.27
2023-05-24T22:10:17.407Z,12.21
2023-05-24T22:12:45.067Z,12.22
2023-05-24T22:15:12.846Z,12.13
2023-05-24T22:17:41.869Z,12.09
2023-05-24T22:20:10.606Z,12.08
2023-05-24T22:22:40.162Z,12.15
2023-05-24T22:25:09.236Z,12.06
2023-05-24T22:27:36.999Z,11.97
2023-05-24T22:30:04.870Z,11.99
2023-05-24T22:32:32.447Z,11.98
2023-05-24T22:35:01.420Z,11.94
2023-05-24T22:37:28.984Z,11.85
2023-05-24T22:39:56.549Z,11.81
2023-05-24T22:42:24.073Z,11.86
2023-05-24T22:44:51.655Z,11.75
2023-05-24T22:47:21.984Z,11.67
2023-05-24T22:49:53.861Z,11.63
2023-05-24T22:52:24.364Z,11.60
2023-05-24T22:54:52.328Z,11.56
2023-05-24T22:57:21.608Z,11.55
2023-05-24T22:59:49.339Z,11.51
2023-05-24T23:02:16.895Z,11.48
2023-05-24T23:04:46.229Z,11.42
2023-05-24T23:07:15.361Z,11.39
2023-05-24T23:09:44.445Z,11.34
2023-05-24T23:12:11.991Z,11.32
2023-05-24T23:14:41.419Z,11.40
2023-05-24T23:17:13.380Z,11.42
2023-05-24T23:19:42.318Z,11.39
2023-05-24T23:22:11.717Z,11.36
2023-05-24T23:24:39.278Z,11.31
2023-05-24T23:27:08.881Z,11.29
2023-05-24T23:29:36.527Z,11.29
2023-05-24T23:32:04.367Z,11.28
2023-05-24T23:34:33.752Z,11.24
2023-05-24T23:37:01.454Z,11.25
2023-05-24T23:39:29.018Z,11.27
2023-05-24T23:41:58.815Z,11.27
2023-05-24T23:44:27.758Z,11.22
2023-05-24T23:46:56.340Z,11.17
2023-05-24T23:49:23.970Z,11.26
2023-05-24T23:51:51.490Z,11.28
2023-05-24T23:54:19.814Z,11.23
2023-05-24T23:56:47.535Z,11.25
2023-05-24T23:59:16.842Z,11.26
